KBCT/BCT METAR and TAF weather

Enter ICAO airport designator
Station Type Date Time Source
KBCT METAR 2021/04/13 22:47 UTC NOAA

KBCT 132247Z 08010KT 10SM CLR 27/15 A3002


Station Type Date Time Source
KBCT Decoded METAR 2021/04/13 22:47 UTC NOAA

Boca Raton, Boca Raton Airport, FL, United States (KBCT) 26-22-43N 080-06-28W
Apr 13, 2021 - 06:47 PM EDT / 2021.04.13 2247 UTC
Wind: from the E (080 degrees) at 12 MPH (10 KT):0
Visibility: 10 mile(s):0
Sky conditions: clear
Temperature: 80 F (27 C)
Dew Point: 59 F (15 C)
Relative Humidity: 47%
Pressure (altimeter): 30.02 in. Hg (1016 hPa)
ob: KBCT 132247Z 08010KT 10SM CLR 27/15 A3002
cycle: 23

Station Type Date Time Source
KBCT TAF 2020/02/03 18:20 UTC NOAA

TAF KBCT 031720Z 0318/0418 12005KT P6SM SKC
FM040000 VRB03KT P6SM SKC
FM041400 16011KT P6SM FEW030

Example: see airport list